createdAt,value
2023-04-08T00:00:17.379Z,1016.47
2023-04-08T00:01:17.358Z,1016.49
2023-04-08T00:02:17.461Z,1016.41
2023-04-08T00:03:17.485Z,1016.42
2023-04-08T00:04:17.429Z,1016.43
2023-04-08T00:05:17.341Z,1016.45
2023-04-08T00:06:17.341Z,1016.46
2023-04-08T00:07:17.336Z,1016.46
2023-04-08T00:08:17.339Z,1016.44
2023-04-08T00:09:17.332Z,1016.47
2023-04-08T00:10:17.328Z,1016.45
2023-04-08T00:11:17.333Z,1016.46
2023-04-08T00:12:17.323Z,1016.41
2023-04-08T00:13:17.326Z,1016.43
2023-04-08T00:14:17.316Z,1016.46
2023-04-08T00:15:17.319Z,1016.47
2023-04-08T00:16:17.427Z,1016.46
2023-04-08T00:17:17.308Z,1016.45
2023-04-08T00:18:17.301Z,1016.42
2023-04-08T00:19:17.312Z,1016.45
2023-04-08T00:20:17.298Z,1016.45
2023-04-08T00:21:17.299Z,1016.43
2023-04-08T00:22:17.299Z,1016.50
2023-04-08T00:23:17.290Z,1016.47
2023-04-08T00:24:17.289Z,1016.46
2023-04-08T00:25:17.297Z,1016.47
2023-04-08T00:26:17.281Z,1016.45
2023-04-08T00:27:17.284Z,1016.43
2023-04-08T00:28:17.272Z,1016.47
2023-04-08T00:29:17.277Z,1016.49
2023-04-08T00:30:17.278Z,1016.47
2023-04-08T00:31:17.317Z,1016.43
2023-04-08T00:32:17.292Z,1016.43
2023-04-08T00:33:17.271Z,1016.44
2023-04-08T00:34:17.276Z,1016.44
2023-04-08T00:35:17.363Z,1016.46
2023-04-08T00:36:17.256Z,1016.48
2023-04-08T00:37:17.253Z,1016.46
2023-04-08T00:38:17.253Z,1016.41
2023-04-08T00:39:17.254Z,1016.38
2023-04-08T00:40:17.252Z,1016.37
2023-04-08T00:41:17.247Z,1016.43
2023-04-08T00:42:17.243Z,1016.40
2023-04-08T00:43:17.236Z,1016.44
2023-04-08T00:44:17.232Z,1016.42
2023-04-08T00:45:17.255Z,1016.42
2023-04-08T00:46:17.250Z,1016.39
2023-04-08T00:47:17.226Z,1016.36
2023-04-08T00:48:17.241Z,1016.37
2023-04-08T00:49:17.219Z,1016.38
2023-04-08T00:50:17.217Z,1016.41
2023-04-08T00:51:17.221Z,1016.42
2023-04-08T00:52:17.206Z,1016.44
2023-04-08T00:53:17.208Z,1016.37
2023-04-08T00:54:17.200Z,1016.39
2023-04-08T00:55:17.201Z,1016.43
2023-04-08T00:56:17.198Z,1016.49
2023-04-08T00:57:17.199Z,1016.45
2023-04-08T00:58:17.196Z,1016.46
2023-04-08T00:59:17.203Z,1016.48
2023-04-08T01:00:17.196Z,1016.50
2023-04-08T01:01:17.243Z,1016.50
2023-04-08T01:02:17.326Z,1016.51
2023-04-08T01:03:17.367Z,1016.45
2023-04-08T01:04:17.283Z,1016.48
2023-04-08T01:05:17.174Z,1016.46
2023-04-08T01:06:17.171Z,1016.48
2023-04-08T01:07:17.174Z,1016.50
2023-04-08T01:08:17.184Z,1016.50
2023-04-08T01:09:17.162Z,1016.52
2023-04-08T01:10:17.182Z,1016.55
2023-04-08T01:11:17.157Z,1016.56
2023-04-08T01:12:17.156Z,1016.59
2023-04-08T01:13:17.161Z,1016.58
2023-04-08T01:14:17.152Z,1016.59
2023-04-08T01:15:17.147Z,1016.58
2023-04-08T01:16:17.208Z,1016.57
2023-04-08T01:17:17.142Z,1016.59
2023-04-08T01:18:17.135Z,1016.61
2023-04-08T01:19:17.135Z,1016.60
2023-04-08T01:20:17.158Z,1016.56
2023-04-08T01:21:17.131Z,1016.63
2023-04-08T01:22:17.124Z,1016.63
2023-04-08T01:23:17.131Z,1016.62
2023-04-08T01:24:17.118Z,1016.61
2023-04-08T01:25:17.121Z,1016.66
2023-04-08T01:26:17.115Z,1016.68
2023-04-08T01:27:17.128Z,1016.63
2023-04-08T01:28:17.111Z,1016.72
2023-04-08T01:29:17.109Z,1016.67
2023-04-08T01:30:17.110Z,1016.64
2023-04-08T01:31:17.182Z,1016.65
2023-04-08T01:32:17.110Z,1016.66
2023-04-08T01:33:17.105Z,1016.63
2023-04-08T01:34:17.096Z,1016.68
2023-04-08T01:35:17.171Z,1016.69
2023-04-08T01:36:17.113Z,1016.67
2023-04-08T01:37:17.087Z,1016.65
2023-04-08T01:38:17.084Z,1016.67
2023-04-08T01:39:17.083Z,1016.62
2023-04-08T01:40:17.081Z,1016.61
2023-04-08T01:41:17.078Z,1016.62
2023-04-08T01:42:17.085Z,1016.63
2023-04-08T01:43:17.075Z,1016.60
2023-04-08T01:44:17.064Z,1016.57
2023-04-08T01:45:17.072Z,1016.56
2023-04-08T01:46:17.096Z,1016.52
2023-04-08T01:47:17.064Z,1016.63
2023-04-08T01:48:17.067Z,1016.58
2023-04-08T01:49:17.060Z,1016.55
2023-04-08T01:50:17.061Z,1016.56
2023-04-08T01:51:17.054Z,1016.56
2023-04-08T01:52:17.071Z,1016.56
2023-04-08T01:53:17.043Z,1016.59
2023-04-08T01:54:17.043Z,1016.59
2023-04-08T01:55:17.066Z,1016.64
2023-04-08T01:56:17.065Z,1016.66
2023-04-08T01:57:17.036Z,1016.71
2023-04-08T01:58:17.060Z,1016.73
2023-04-08T01:59:17.234Z,1016.75
2023-04-08T02:00:17.350Z,1016.72
2023-04-08T02:01:17.033Z,1016.77
2023-04-08T02:02:17.090Z,1016.79
2023-04-08T02:03:17.487Z,1016.75
2023-04-08T02:04:17.149Z,1016.81
2023-04-08T02:05:17.010Z,1016.77
2023-04-08T02:06:17.011Z,1016.81
2023-04-08T02:07:17.004Z,1016.82
2023-04-08T02:08:17.032Z,1016.81
2023-04-08T02:09:17.006Z,1016.82
2023-04-08T02:10:17.006Z,1016.87
2023-04-08T02:11:16.997Z,1016.85
2023-04-08T02:12:16.994Z,1016.83
2023-04-08T02:13:16.991Z,1016.82
2023-04-08T02:14:16.989Z,1016.89
2023-04-08T02:15:16.984Z,1016.84
2023-04-08T02:16:17.028Z,1016.87
2023-04-08T02:17:16.975Z,1016.84
2023-04-08T02:18:16.981Z,1016.82
2023-04-08T02:19:16.979Z,1016.79
2023-04-08T02:20:16.988Z,1016.83
2023-04-08T02:21:16.991Z,1016.86
2023-04-08T02:22:16.967Z,1016.82
2023-04-08T02:23:16.981Z,1016.82
2023-04-08T02:24:16.988Z,1016.81
2023-04-08T02:25:16.979Z,1016.79
2023-04-08T02:26:16.962Z,1016.82
2023-04-08T02:27:16.949Z,1016.79
2023-04-08T02:28:16.950Z,1016.83
2023-04-08T02:29:16.943Z,1016.82
2023-04-08T02:30:16.947Z,1016.84
2023-04-08T02:31:16.950Z,1016.82
2023-04-08T02:32:16.940Z,1016.82
2023-04-08T02:33:16.953Z,1016.84
2023-04-08T02:34:16.948Z,1016.86
2023-04-08T02:35:17.002Z,1016.84
2023-04-08T02:36:16.937Z,1016.91
2023-04-08T02:37:16.926Z,1016.92
2023-04-08T02:38:16.938Z,1016.96
2023-04-08T02:39:16.944Z,1016.93
2023-04-08T02:40:16.938Z,1016.91
2023-04-08T02:41:16.912Z,1016.91
2023-04-08T02:42:16.908Z,1016.96
2023-04-08T02:43:16.913Z,1016.99
2023-04-08T02:44:16.910Z,1016.95
2023-04-08T02:45:16.910Z,1016.93
2023-04-08T02:46:16.979Z,1016.99
2023-04-08T02:47:16.889Z,1017.03
2023-04-08T02:48:16.906Z,1016.97
2023-04-08T02:49:16.889Z,1017.01
2023-04-08T02:50:16.898Z,1017.00
2023-04-08T02:51:16.879Z,1017.01
2023-04-08T02:52:16.895Z,1017.02
2023-04-08T02:53:16.872Z,1016.98
2023-04-08T02:54:16.874Z,1017.03
2023-04-08T02:55:16.873Z,1017.06
2023-04-08T02:56:16.898Z,1017.08
2023-04-08T02:57:16.871Z,1017.03
2023-04-08T02:58:16.863Z,1017.06
2023-04-08T02:59:16.859Z,1017.04
2023-04-08T03:00:16.856Z,1017.05
2023-04-08T03:01:17.279Z,1017.06
2023-04-08T03:02:16.925Z,1017.07
2023-04-08T03:03:16.913Z,1017.07
2023-04-08T03:04:16.864Z,1017.07
2023-04-08T03:05:16.851Z,1017.08
2023-04-08T03:06:16.852Z,1017.07
2023-04-08T03:07:16.842Z,1017.06
2023-04-08T03:08:16.837Z,1017.04
2023-04-08T03:09:16.828Z,1017.05
2023-04-08T03:10:16.828Z,1017.05
2023-04-08T03:11:16.823Z,1017.08
2023-04-08T03:12:16.847Z,1017.12
2023-04-08T03:13:16.816Z,1017.15
2023-04-08T03:14:16.817Z,1017.13
2023-04-08T03:15:16.808Z,1017.15
2023-04-08T03:16:16.868Z,1017.16
2023-04-08T03:17:16.809Z,1017.20
2023-04-08T03:18:16.804Z,1017.20
2023-04-08T03:19:16.804Z,1017.19
2023-04-08T03:20:16.805Z,1017.22
2023-04-08T03:21:16.796Z,1017.20
2023-04-08T03:22:16.808Z,1017.26
2023-04-08T03:23:16.786Z,1017.17
2023-04-08T03:24:16.793Z,1017.23
2023-04-08T03:25:16.786Z,1017.21
2023-04-08T03:26:16.789Z,1017.20
2023-04-08T03:27:16.798Z,1017.26
2023-04-08T03:28:16.805Z,1017.22
2023-04-08T03:29:16.772Z,1017.26
2023-04-08T03:30:16.774Z,1017.27
2023-04-08T03:31:16.815Z,1017.30
2023-04-08T03:32:16.765Z,1017.27
2023-04-08T03:33:16.761Z,1017.27
2023-04-08T03:34:16.762Z,1017.28
2023-04-08T03:35:16.760Z,1017.33
2023-04-08T03:36:16.752Z,1017.31
2023-04-08T03:37:16.750Z,1017.29
2023-04-08T03:38:16.779Z,1017.26
2023-04-08T03:39:16.741Z,1017.32
2023-04-08T03:40:16.743Z,1017.25
2023-04-08T03:41:16.751Z,1017.29
2023-04-08T03:42:16.738Z,1017.27
2023-04-08T03:43:16.742Z,1017.24
2023-04-08T03:44:16.752Z,1017.27
2023-04-08T03:45:16.741Z,1017.30
2023-04-08T03:46:16.786Z,1017.30
2023-04-08T03:47:16.723Z,1017.35
2023-04-08T03:48:16.721Z,1017.32
2023-04-08T03:49:16.718Z,1017.36
2023-04-08T03:50:16.714Z,1017.33
2023-04-08T03:51:16.710Z,1017.40
2023-04-08T03:52:16.708Z,1017.45
2023-04-08T03:53:16.707Z,1017.38
2023-04-08T03:54:16.705Z,1017.39
2023-04-08T03:55:16.704Z,1017.40
2023-04-08T03:56:16.701Z,1017.41
2023-04-08T03:57:17.021Z,1017.42
2023-04-08T03:58:16.699Z,1017.48
2023-04-08T03:59:16.683Z,1017.41
2023-04-08T04:00:16.707Z,1017.44
2023-04-08T04:01:17.017Z,1017.42
2023-04-08T04:02:16.741Z,1017.47
2023-04-08T04:03:16.777Z,1017.45
2023-04-08T04:04:16.763Z,1017.42
2023-04-08T04:05:16.667Z,1017.37
2023-04-08T04:06:16.669Z,1017.43
2023-04-08T04:07:16.659Z,1017.40
2023-04-08T04:08:16.660Z,1017.44
2023-04-08T04:09:16.675Z,1017.46
2023-04-08T04:10:16.661Z,1017.46
2023-04-08T04:11:16.653Z,1017.49
2023-04-08T04:12:16.654Z,1017.50
2023-04-08T04:13:16.658Z,1017.58
2023-04-08T04:14:16.644Z,1017.57
2023-04-08T04:15:16.643Z,1017.61
2023-04-08T04:16:16.804Z,1017.64
2023-04-08T04:17:16.628Z,1017.65
2023-04-08T04:18:16.667Z,1017.62
2023-04-08T04:19:16.623Z,1017.62
2023-04-08T04:20:16.636Z,1017.62
2023-04-08T04:21:16.621Z,1017.66
2023-04-08T04:22:16.624Z,1017.66
2023-04-08T04:23:16.620Z,1017.69
2023-04-08T04:24:16.618Z,1017.72
2023-04-08T04:25:16.615Z,1017.76
2023-04-08T04:26:16.613Z,1017.77
2023-04-08T04:27:16.606Z,1017.79
2023-04-08T04:28:16.624Z,1017.69
2023-04-08T04:29:16.599Z,1017.67
2023-04-08T04:30:16.602Z,1017.68
2023-04-08T04:31:16.608Z,1017.71
2023-04-08T04:32:16.617Z,1017.72
2023-04-08T04:33:16.592Z,1017.75
2023-04-08T04:34:16.588Z,1017.75
2023-04-08T04:35:16.605Z,1017.75
2023-04-08T04:36:16.587Z,1017.71
2023-04-08T04:37:16.579Z,1017.73
2023-04-08T04:38:16.577Z,1017.79
2023-04-08T04:39:16.589Z,1017.78
2023-04-08T04:40:16.577Z,1017.85
2023-04-08T04:41:16.562Z,1017.83
2023-04-08T04:42:16.567Z,1017.85
2023-04-08T04:43:16.558Z,1017.85
2023-04-08T04:44:16.565Z,1017.83
2023-04-08T04:45:16.565Z,1017.86
2023-04-08T04:46:16.625Z,1017.90
2023-04-08T04:47:16.552Z,1017.89
2023-04-08T04:48:16.563Z,1017.87
2023-04-08T04:49:16.541Z,1017.91
2023-04-08T04:50:16.542Z,1017.92
2023-04-08T04:51:16.548Z,1017.93
2023-04-08T04:52:16.534Z,1017.94
2023-04-08T04:53:16.531Z,1017.94
2023-04-08T04:54:16.531Z,1017.93
2023-04-08T04:55:16.566Z,1017.95
2023-04-08T04:56:16.519Z,1017.96
2023-04-08T04:57:16.518Z,1017.96
2023-04-08T04:58:16.520Z,1017.97
2023-04-08T04:59:16.512Z,1018.01
2023-04-08T05:00:16.513Z,1018.03
2023-04-08T05:01:16.558Z,1018.02
2023-04-08T05:02:16.649Z,1018.03
2023-04-08T05:03:16.710Z,1018.04
2023-04-08T05:04:16.534Z,1018.07
2023-04-08T05:05:16.552Z,1018.10
2023-04-08T05:06:16.502Z,1018.10
2023-04-08T05:07:16.507Z,1018.10
2023-04-08T05:08:16.502Z,1018.08
2023-04-08T05:09:16.504Z,1018.11
2023-04-08T05:10:16.498Z,1018.11
2023-04-08T05:11:16.486Z,1018.17
2023-04-08T05:12:16.487Z,1018.13
2023-04-08T05:13:16.484Z,1018.12
2023-04-08T05:14:16.501Z,1018.07
2023-04-08T05:15:16.505Z,1018.06
2023-04-08T05:16:16.575Z,1018.07
2023-04-08T05:17:16.472Z,1018.06
2023-04-08T05:18:16.476Z,1018.06
2023-04-08T05:19:16.466Z,1018.07
2023-04-08T05:20:17.643Z,1018.08
2023-04-08T05:21:16.463Z,1018.11
2023-04-08T05:22:16.464Z,1018.10
2023-04-08T05:23:16.462Z,1018.12
2023-04-08T05:24:16.458Z,1018.11
2023-04-08T05:25:16.501Z,1018.19
2023-04-08T05:26:16.632Z,1018.24
2023-04-08T05:27:16.447Z,1018.23
2023-04-08T05:28:16.449Z,1018.28
2023-04-08T05:29:16.448Z,1018.28
2023-04-08T05:30:16.454Z,1018.31
2023-04-08T05:31:16.461Z,1018.34
2023-04-08T05:32:16.437Z,1018.37
2023-04-08T05:33:16.434Z,1018.34
2023-04-08T05:34:16.438Z,1018.42
2023-04-08T05:35:16.424Z,1018.38
2023-04-08T05:36:16.452Z,1018.42
2023-04-08T05:37:16.422Z,1018.38
2023-04-08T05:38:16.420Z,1018.44
2023-04-08T05:39:16.414Z,1018.45
2023-04-08T05:40:16.416Z,1018.47
2023-04-08T05:41:16.406Z,1018.45
2023-04-08T05:42:16.410Z,1018.45
2023-04-08T05:43:16.404Z,1018.48
2023-04-08T05:44:16.415Z,1018.47
2023-04-08T05:45:16.397Z,1018.48
2023-04-08T05:46:16.429Z,1018.48
2023-04-08T05:47:16.406Z,1018.48
2023-04-08T05:48:16.399Z,1018.48
2023-04-08T05:49:16.392Z,1018.48
2023-04-08T05:50:16.395Z,1018.47
2023-04-08T05:51:16.384Z,1018.46
2023-04-08T05:52:16.413Z,1018.49
2023-04-08T05:53:16.404Z,1018.49
2023-04-08T05:54:16.379Z,1018.47
2023-04-08T05:55:16.371Z,1018.50
2023-04-08T05:56:16.420Z,1018.49
2023-04-08T05:57:16.364Z,1018.53
2023-04-08T05:58:16.369Z,1018.55
2023-04-08T05:59:16.354Z,1018.57
2023-04-08T06:00:16.352Z,1018.57
2023-04-08T06:01:16.348Z,1018.62
2023-04-08T06:02:16.445Z,1018.60
2023-04-08T06:03:19.733Z,1018.63
2023-04-08T06:04:16.509Z,1018.61
2023-04-08T06:05:16.342Z,1018.65
2023-04-08T06:06:16.332Z,1018.66
2023-04-08T06:07:16.336Z,1018.65
2023-04-08T06:08:16.362Z,1018.66
2023-04-08T06:09:16.323Z,1018.67
2023-04-08T06:10:16.321Z,1018.68
2023-04-08T06:11:16.329Z,1018.67
2023-04-08T06:12:16.314Z,1018.71
2023-04-08T06:13:16.319Z,1018.69
2023-04-08T06:14:16.314Z,1018.73
2023-04-08T06:15:16.314Z,1018.75
2023-04-08T06:16:17.208Z,1018.79
2023-04-08T06:17:16.306Z,1018.76
2023-04-08T06:18:16.302Z,1018.81
2023-04-08T06:19:16.462Z,1018.82
2023-04-08T06:20:16.303Z,1018.84
2023-04-08T06:21:16.294Z,1018.82
2023-04-08T06:22:16.288Z,1018.87
2023-04-08T06:23:16.291Z,1018.86
2023-04-08T06:24:16.307Z,1018.83
2023-04-08T06:25:16.319Z,1018.89
2023-04-08T06:26:16.281Z,1018.87
2023-04-08T06:27:16.315Z,1018.86
2023-04-08T06:28:16.275Z,1018.88
2023-04-08T06:29:16.280Z,1018.88
2023-04-08T06:30:16.290Z,1018.88
2023-04-08T06:31:16.298Z,1018.89
2023-04-08T06:32:16.269Z,1018.96
2023-04-08T06:33:16.268Z,1018.97
2023-04-08T06:34:16.261Z,1018.97
2023-04-08T06:35:16.279Z,1019.02
2023-04-08T06:36:16.267Z,1018.99
2023-04-08T06:37:16.307Z,1019.03
2023-04-08T06:38:16.256Z,1019.04
2023-04-08T06:39:16.255Z,1019.06
2023-04-08T06:40:16.276Z,1019.03
2023-04-08T06:41:16.259Z,1019.05
2023-04-08T06:42:16.243Z,1019.08
2023-04-08T06:43:16.249Z,1019.07
2023-04-08T06:44:16.237Z,1019.11
2023-04-08T06:45:16.242Z,1019.10
2023-04-08T06:46:16.376Z,1019.05
2023-04-08T06:47:16.233Z,1019.11
2023-04-08T06:48:16.226Z,1019.16
2023-04-08T06:49:16.245Z,1019.19
2023-04-08T06:50:16.229Z,1019.19
2023-04-08T06:51:16.225Z,1019.22
2023-04-08T06:52:16.219Z,1019.33
2023-04-08T06:53:16.220Z,1019.26
2023-04-08T06:54:16.216Z,1019.32
2023-04-08T06:55:16.221Z,1019.28
2023-04-08T06:56:16.250Z,1019.26
2023-04-08T06:57:16.214Z,1019.23
2023-04-08T06:58:16.212Z,1019.32
2023-04-08T06:59:16.206Z,1019.27
2023-04-08T07:00:16.200Z,1019.30
2023-04-08T07:01:16.287Z,1019.29
2023-04-08T07:02:16.232Z,1019.26
2023-04-08T07:03:16.294Z,1019.40
2023-04-08T07:04:16.406Z,1019.43
2023-04-08T07:05:16.207Z,1019.39
2023-04-08T07:06:16.204Z,1019.42
2023-04-08T07:07:16.201Z,1019.41
2023-04-08T07:08:16.194Z,1019.44
2023-04-08T07:09:16.232Z,1019.37
2023-04-08T07:10:16.188Z,1019.35
2023-04-08T07:11:16.203Z,1019.41
2023-04-08T07:12:16.209Z,1019.45
2023-04-08T07:13:16.199Z,1019.48
2023-04-08T07:14:16.183Z,1019.36
2023-04-08T07:15:16.180Z,1019.41
2023-04-08T07:16:16.290Z,1019.43
2023-04-08T07:17:16.222Z,1019.46
2023-04-08T07:18:16.171Z,1019.54
2023-04-08T07:19:16.172Z,1019.63
2023-04-08T07:20:16.167Z,1019.61
2023-04-08T07:21:16.171Z,1019.54
2023-04-08T07:22:16.180Z,1019.54
2023-04-08T07:23:16.164Z,1019.57
2023-04-08T07:24:16.168Z,1019.61
2023-04-08T07:25:16.168Z,1019.61
2023-04-08T07:26:16.157Z,1019.59
2023-04-08T07:27:16.158Z,1019.65
2023-04-08T07:28:16.196Z,1019.64
2023-04-08T07:29:16.157Z,1019.67
2023-04-08T07:30:16.152Z,1019.72
2023-04-08T07:31:16.235Z,1019.64
2023-04-08T07:32:16.173Z,1019.64
2023-04-08T07:33:16.147Z,1019.64
2023-04-08T07:34:16.149Z,1019.62
2023-04-08T07:35:16.153Z,1019.64
2023-04-08T07:36:16.138Z,1019.66
2023-04-08T07:37:16.192Z,1019.71
2023-04-08T07:38:16.184Z,1019.71
2023-04-08T07:39:16.142Z,1019.71
2023-04-08T07:40:16.137Z,1019.71
2023-04-08T07:41:16.141Z,1019.69
2023-04-08T07:42:16.133Z,1019.65
2023-04-08T07:43:16.151Z,1019.66
2023-04-08T07:44:16.150Z,1019.78
2023-04-08T07:45:16.129Z,1019.77
2023-04-08T07:46:16.218Z,1019.67
2023-04-08T07:47:16.128Z,1019.69
2023-04-08T07:48:16.123Z,1019.69
2023-04-08T07:49:16.127Z,1019.67
2023-04-08T07:50:16.158Z,1019.70
2023-04-08T07:51:16.121Z,1019.72
2023-04-08T07:52:16.162Z,1019.72
2023-04-08T07:53:16.121Z,1019.75
2023-04-08T07:54:16.111Z,1019.75
2023-04-08T07:55:16.123Z,1019.71
2023-04-08T07:56:16.186Z,1019.71
2023-04-08T07:57:16.113Z,1019.77
2023-04-08T07:58:16.115Z,1019.79
2023-04-08T07:59:16.108Z,1019.85
2023-04-08T08:00:16.119Z,1019.87
2023-04-08T08:01:16.104Z,1019.86
2023-04-08T08:02:16.157Z,1019.80
2023-04-08T08:03:16.181Z,1019.75
2023-04-08T08:04:16.292Z,1019.74
2023-04-08T08:05:16.223Z,1019.76
2023-04-08T08:06:16.106Z,1019.78
2023-04-08T08:07:16.100Z,1019.77
2023-04-08T08:08:16.086Z,1019.80
2023-04-08T08:09:16.113Z,1019.77
2023-04-08T08:10:16.089Z,1019.77
2023-04-08T08:11:16.106Z,1019.81
2023-04-08T08:12:16.100Z,1019.86
2023-04-08T08:13:16.095Z,1019.84
2023-04-08T08:14:16.087Z,1019.86
2023-04-08T08:15:16.096Z,1019.88
2023-04-08T08:16:16.144Z,1019.92
2023-04-08T08:17:16.089Z,1019.95
2023-04-08T08:18:16.087Z,1019.96
2023-04-08T08:19:16.082Z,1019.92
2023-04-08T08:20:16.076Z,1019.95
2023-04-08T08:21:16.132Z,1019.96
2023-04-08T08:22:16.087Z,1020.02
2023-04-08T08:23:16.084Z,1019.97
2023-04-08T08:24:16.072Z,1019.95
2023-04-08T08:25:16.086Z,1020.02
2023-04-08T08:26:16.085Z,1020.01
2023-04-08T08:27:16.076Z,1019.99
2023-04-08T08:28:16.081Z,1020.02
2023-04-08T08:29:16.085Z,1019.99
2023-04-08T08:30:16.068Z,1020.01
2023-04-08T08:31:16.107Z,1020.05
2023-04-08T08:32:16.084Z,1020.02
2023-04-08T08:33:16.068Z,1020.09
2023-04-08T08:34:16.085Z,1020.07
2023-04-08T08:35:16.072Z,1020.04
2023-04-08T08:36:16.106Z,1020.07
2023-04-08T08:37:16.062Z,1020.06
2023-04-08T08:38:16.054Z,1020.04
2023-04-08T08:39:16.054Z,1020.02
2023-04-08T08:40:16.082Z,1020.04
2023-04-08T08:41:16.060Z,1020.08
2023-04-08T08:42:16.059Z,1020.05
2023-04-08T08:43:16.068Z,1020.13
2023-04-08T08:44:16.050Z,1020.11
2023-04-08T08:45:16.048Z,1020.07
2023-04-08T08:46:16.060Z,1020.11
2023-04-08T08:47:16.053Z,1020.15
2023-04-08T08:48:16.192Z,1020.19
2023-04-08T08:49:16.045Z,1020.17
2023-04-08T08:50:16.047Z,1020.21
2023-04-08T08:51:16.041Z,1020.12
2023-04-08T08:52:16.048Z,1020.15
2023-04-08T08:53:16.041Z,1020.20
2023-04-08T08:54:16.036Z,1020.22
2023-04-08T08:55:32.543Z,1020.25
2023-04-08T08:56:17.798Z,1020.27
2023-04-08T08:57:16.038Z,1020.24
2023-04-08T08:58:16.037Z,1020.20
2023-04-08T08:59:16.028Z,1020.24
2023-04-08T09:00:16.047Z,1020.23
2023-04-08T09:01:16.022Z,1020.26
2023-04-08T09:02:16.167Z,1020.26
2023-04-08T09:03:16.253Z,1020.25
2023-04-08T09:04:16.337Z,1020.28
2023-04-08T09:05:16.215Z,1020.26
2023-04-08T09:06:16.023Z,1020.26
2023-04-08T09:07:16.021Z,1020.28
2023-04-08T09:08:16.007Z,1020.27
2023-04-08T09:09:16.039Z,1020.31
2023-04-08T09:10:16.011Z,1020.42
2023-04-08T09:11:16.040Z,1020.40
2023-04-08T09:12:18.043Z,1020.36
2023-04-08T09:13:16.056Z,1020.41
2023-04-08T09:14:16.006Z,1020.41
2023-04-08T09:15:16.017Z,1020.41
2023-04-08T09:16:16.034Z,1020.43
2023-04-08T09:17:16.009Z,1020.42
2023-04-08T09:18:17.737Z,1020.44
2023-04-08T09:19:16.027Z,1020.48
2023-04-08T09:20:16.027Z,1020.50
2023-04-08T09:21:16.004Z,1020.54
2023-04-08T09:22:16.000Z,1020.55
2023-04-08T09:23:16.000Z,1020.61
2023-04-08T09:24:17.771Z,1020.67
2023-04-08T09:25:16.014Z,1020.64
2023-04-08T09:26:16.001Z,1020.63
2023-04-08T09:27:15.995Z,1020.67
2023-04-08T09:28:15.988Z,1020.69
2023-04-08T09:29:26.026Z,1020.67
2023-04-08T09:30:15.995Z,1020.63
2023-04-08T09:31:16.004Z,1020.66
2023-04-08T09:32:16.005Z,1020.66
2023-04-08T09:33:16.002Z,1020.62
2023-04-08T09:34:15.999Z,1020.66
2023-04-08T09:35:15.990Z,1020.67
2023-04-08T09:36:16.014Z,1020.71
2023-04-08T09:37:15.987Z,1020.70
2023-04-08T09:38:15.993Z,1020.68
2023-04-08T09:39:15.994Z,1020.63
2023-04-08T09:40:15.986Z,1020.67
2023-04-08T09:41:15.982Z,1020.69
2023-04-08T09:42:15.980Z,1020.70
2023-04-08T09:43:15.977Z,1020.71
2023-04-08T09:44:15.976Z,1020.71
2023-04-08T09:45:15.978Z,1020.71
2023-04-08T09:46:16.088Z,1020.73
2023-04-08T09:47:15.973Z,1020.72
2023-04-08T09:48:16.586Z,1020.77
2023-04-08T09:49:15.974Z,1020.69
2023-04-08T09:50:15.971Z,1020.65
2023-04-08T09:51:15.973Z,1020.65
2023-04-08T09:52:16.021Z,1020.67
2023-04-08T09:53:15.979Z,1020.81
2023-04-08T09:54:15.965Z,1020.90
2023-04-08T09:55:15.965Z,1020.82
2023-04-08T09:56:15.968Z,1020.79
2023-04-08T09:57:15.961Z,1020.87
2023-04-08T09:58:15.964Z,1020.85
2023-04-08T09:59:15.969Z,1020.76
2023-04-08T10:00:15.962Z,1020.76
2023-04-08T10:01:15.989Z,1020.68
2023-04-08T10:02:16.031Z,1020.75
2023-04-08T10:03:16.262Z,1020.79
2023-04-08T10:04:16.064Z,1020.78
2023-04-08T10:05:15.957Z,1020.77
2023-04-08T10:06:15.963Z,1020.83
2023-04-08T10:07:15.963Z,1020.87
2023-04-08T10:08:15.975Z,1020.83
2023-04-08T10:09:15.953Z,1020.83
2023-04-08T10:10:15.978Z,1020.80
2023-04-08T10:11:15.953Z,1020.82
2023-04-08T10:12:15.953Z,1020.77
2023-04-08T10:13:15.988Z,1020.77
2023-04-08T10:14:15.948Z,1020.78
2023-04-08T10:15:15.952Z,1020.70
2023-04-08T10:16:15.990Z,1020.74
2023-04-08T10:17:15.946Z,1020.64
2023-04-08T10:18:15.946Z,1020.71
2023-04-08T10:19:15.952Z,1020.72
2023-04-08T10:20:15.949Z,1020.72
2023-04-08T10:21:15.947Z,1020.72
2023-04-08T10:22:15.949Z,1020.74
2023-04-08T10:23:15.960Z,1020.73
2023-04-08T10:24:15.973Z,1020.76
2023-04-08T10:25:15.941Z,1020.71
2023-04-08T10:26:15.945Z,1020.77
2023-04-08T10:27:15.942Z,1020.74
2023-04-08T10:28:15.940Z,1020.74
2023-04-08T10:29:15.936Z,1020.73
2023-04-08T10:30:15.936Z,1020.69
2023-04-08T10:31:15.936Z,1020.68
2023-04-08T10:32:15.938Z,1020.69
2023-04-08T10:33:15.933Z,1020.64
2023-04-08T10:34:15.997Z,1020.71
2023-04-08T10:35:15.931Z,1020.70
2023-04-08T10:36:15.929Z,1020.76
2023-04-08T10:37:15.932Z,1020.76
2023-04-08T10:38:15.945Z,1020.89
2023-04-08T10:39:15.930Z,1021.04
2023-04-08T10:40:16.000Z,1021.05
2023-04-08T10:41:15.926Z,1021.08
2023-04-08T10:42:15.925Z,1020.85
2023-04-08T10:43:15.982Z,1020.84
2023-04-08T10:44:15.921Z,1020.82
2023-04-08T10:45:15.924Z,1020.80
2023-04-08T10:46:15.941Z,1020.79
2023-04-08T10:47:15.921Z,1020.80
2023-04-08T10:48:15.921Z,1020.83
2023-04-08T10:49:15.926Z,1020.81
2023-04-08T10:50:15.993Z,1020.88
2023-04-08T10:51:15.916Z,1020.87
2023-04-08T10:52:15.915Z,1020.90
2023-04-08T10:53:15.916Z,1020.89
2023-04-08T10:54:15.932Z,1020.86
2023-04-08T10:55:15.910Z,1020.85
2023-04-08T10:56:15.938Z,1020.83
2023-04-08T10:57:15.913Z,1020.79
2023-04-08T10:58:15.913Z,1020.79
2023-04-08T10:59:15.911Z,1020.78
2023-04-08T11:00:15.985Z,1020.78
2023-04-08T11:01:15.920Z,1020.74
2023-04-08T11:02:16.228Z,1020.80
2023-04-08T11:03:16.096Z,1020.80
2023-04-08T11:04:16.078Z,1020.77
2023-04-08T11:05:15.919Z,1020.79
2023-04-08T11:06:15.912Z,1020.72
2023-04-08T11:07:15.925Z,1020.81
2023-04-08T11:08:15.911Z,1020.78
2023-04-08T11:09:15.909Z,1020.76
2023-04-08T11:10:15.938Z,1020.77
2023-04-08T11:11:15.907Z,1020.82
2023-04-08T11:12:15.933Z,1020.83
2023-04-08T11:13:15.903Z,1020.82
2023-04-08T11:14:15.905Z,1020.85
2023-04-08T11:15:15.908Z,1020.84
2023-04-08T11:16:18.214Z,1020.86
2023-04-08T11:17:15.912Z,1020.85
2023-04-08T11:18:15.922Z,1020.86
2023-04-08T11:19:15.916Z,1020.84
2023-04-08T11:20:15.911Z,1020.86
2023-04-08T11:21:15.907Z,1020.87
2023-04-08T11:22:15.899Z,1020.84
2023-04-08T11:23:15.901Z,1020.85
2023-04-08T11:24:15.913Z,1020.87
2023-04-08T11:25:15.932Z,1020.85
2023-04-08T11:26:15.902Z,1020.86
2023-04-08T11:27:15.898Z,1020.89
2023-04-08T11:28:15.919Z,1020.93
2023-04-08T11:29:15.902Z,1020.96
2023-04-08T11:30:15.903Z,1020.96
2023-04-08T11:31:15.947Z,1020.98
2023-04-08T11:32:15.899Z,1020.99
2023-04-08T11:33:15.890Z,1021.06
2023-04-08T11:34:15.903Z,1021.11
2023-04-08T11:35:15.905Z,1021.09
2023-04-08T11:36:15.943Z,1021.05
2023-04-08T11:37:15.907Z,1021.05
2023-04-08T11:38:15.902Z,1021.03
2023-04-08T11:39:15.889Z,1021.00
2023-04-08T11:40:15.900Z,1021.18
2023-04-08T11:41:15.902Z,1021.11
2023-04-08T11:42:15.891Z,1021.36
2023-04-08T11:43:15.888Z,1021.28
2023-04-08T11:44:15.911Z,1021.26
2023-04-08T11:45:15.905Z,1021.26
2023-04-08T11:46:15.940Z,1021.01
2023-04-08T11:47:15.882Z,1021.02
2023-04-08T11:48:15.882Z,1021.21
2023-04-08T11:49:15.886Z,1021.24
2023-04-08T11:50:16.091Z,1021.18
2023-04-08T11:51:15.878Z,1021.15
2023-04-08T11:52:15.886Z,1021.19
2023-04-08T11:53:15.876Z,1021.03
2023-04-08T11:54:15.882Z,1020.90
2023-04-08T11:55:15.879Z,1020.99
2023-04-08T11:56:15.896Z,1021.06
2023-04-08T11:57:15.887Z,1021.05
2023-04-08T11:58:15.939Z,1021.11
2023-04-08T11:59:15.883Z,1021.14
2023-04-08T12:00:15.910Z,1021.13
2023-04-08T12:01:15.908Z,1021.10
2023-04-08T12:02:15.975Z,1021.09
2023-04-08T12:03:15.919Z,1021.17
2023-04-08T12:04:15.998Z,1021.12
2023-04-08T12:05:15.886Z,1021.00